Sparta, NC

5:05 AM EST on December 22, 2014 (GMT -0500)
stone ridge | Change Station
CLOSE
Current Station
Personal Weather Station
Location: Sparta, NC
Elevation: 3009 ft
Nearby Weather Stations

Elev 3009 ft 36.50 °N, 81.14 °W | Updated 7 seconds ago

Overcast
Overcast
31.5 °F
Feels Like 32 °F
N
0.0
Wind Variable Wind from East
Gusts 0.0 mph

Today
High -- | Low -- °F
--% Chance of Precip.
Yesterday
High -- | Low -- °F
Precip. -- in
7:33 AM 5:13 PM
New Moon, 0% visible
Pressure 30.06 in
Visibility 0.2 miles
Clouds Overcast 300 ft
Windchill 32 °F
Dew Point 31 °F
Humidity 97%
Rainfall 0.00 in
Snow Depth Not available.
UV 0 out of 12
Pollen .10 out of 12
Air Quality Not available.
Flu Activity Not available.
METAR KGEV 220955Z AUTO 00000KT 1/4SM FG OVC003 01/01 A3006 RMK AO2 T00070007

More Conditions Fewer Conditions

Pressure 30.06 in
Visibility 0.2 miles
Clouds Overcast 300 ft
Windchill 32 °F
Dew Point 31 °F
Humidity 97%
Rainfall 0.00 in
Snow Depth Not available.
UV 0 out of 12
Pollen .10 out of 12
Air Quality Not available.
Flu Activity Not available.
METAR KGEV 220955Z AUTO 00000KT 1/4SM FG OVC003 01/01 A3006 RMK AO2 T00070007

More Conditions Fewer Conditions

10-Day Weather Forecast

Almanac

Astronomy

Dec. 22, 2014 Rise Set
Actual Time
Civil Twilight
Nautical Twilight
Astronomical Twilight
Moon
Length of Visible Light
Length of Day
Tomorrow will be .
, % of the Moon is Illuminated

Today's Extremes

State Highs State Lows

Community

WunderPhotos

Upload Photos

1,779,583 photos uploaded!

WunderBlogs® & News

Nearby

Air Quality

  Air Quality AQ Index Pollutant
Not available.

Snow Depth

Station Depth Elevation

Earthquake Activity

City Distance Mag. Time & Date
Minimum magnitude displayed is 2.5.

Coastal Water Temperatures

Place Temperature

Nearby Weather Stations